CheckWX is a tool to help pilots better visualize weather data.  It is not intended as a substitute for an official pre-flight weather briefing.

08:09:24 UTC

KMDW METAR
Chicago Midway International Airport
Chicago, Illinois, USA
Current

1 hour ago

KMDW 290653Z 34015G23KT 10SM FEW014 SCT024 OVC032 17/15 A2989 RMK AO2 LTG DSNT SE RAE20 SLP113 P0003 T01720150
Observed
May-29 @ 06:53 UTC
Wind
  • 340° at 15 KTS
  • Gusting to 23 KTS
Visibility
Flight Rules
VFR
Cloud Levels
  • Few at 1,400' AGL
  • Scattered at 2,400' AGL
  • Overcast at 3,200' AGL
Temperature
17°C / 63°F
Dewpoint
15°C / 59°F
Humidity
88%
Altimeter
29.89" Hg
Pressure
1012.22 hPa
Current Rain
0.03"
Previous

2 hours ago

KMDW 290628Z 33017G24KT 9SM VCTS FEW010 BKN014 OVC031 17/16 A2988 RMK AO2 RAE20 P0003 T01720161
Observed
May-29 @ 06:28 UTC
Wind
  • 330° at 17 KTS
  • Gusting to 24 KTS
Visibility
Flight Rules
MVFR
Conditions
Area Thunderstorm
Cloud Levels
  • Few at 1,000' AGL
  • Broken at 1,400' AGL
  • Overcast at 3,100' AGL
Temperature
17°C / 63°F
Dewpoint
16°C / 61°F
Humidity
94%
Altimeter
29.88" Hg
Pressure
1011.82 hPa
Current Rain
0.03"
Previous

2 hours ago

KMDW 290628Z COR 33017G24KT 9SM VCTS FEW010 BKN014 OVC031 17/16 A2988 RMK AO2 RAE20 OCNL LTGCG DSNT S CB DSNT S P0003 T01720161
Observed
May-29 @ 06:28 UTC
Wind
  • 330° at 17 KTS
  • Gusting to 24 KTS
Visibility
Flight Rules
MVFR
Conditions
Area Thunderstorm
Cloud Levels
  • Few at 1,000' AGL
  • Broken at 1,400' AGL
  • Overcast at 3,100' AGL
Temperature
17°C / 63°F
Dewpoint
16°C / 61°F
Humidity
94%
Altimeter
29.88" Hg
Pressure
1011.82 hPa
Current Rain
0.03"